Portada
METAR-TAF:

METAR-TAF

Aeroports :

Grider Field

Pine Bluff, Arkansas, Estats Units d'Amèrica

latitud: 34-10-30N, longitud: 091-56-05W, altitud: 63 m

Observació

L'informe es va fer fa 59 minuts, a les 01:53 UTC
Vent 3 kt del Est/Sud-Est
Temperatura 30°C
Humitat 79%
Pressió 1012 hPa
Visibilitat: 16.1 km
Cel clar

METAR: KPBF 250153Z AUTO 12003KT 10SM CLR 30/26 A2989 RMK AO2 SLP119 T03000261

Hora: 21:52 (02:52 UTC)

Pronòstic

L'informe es va fer fa 3 hores i 32 minuts, a les 23:20 UTC
Pronòstic vàlid del 25 a les 00 UTC al 25 a les 24 UTC
Vent 3 kt amb direcció variable
Visibilitat: 10 km
Escasses núvols a una alçada de 12000 ft
A partir de les 25 a les 1500 UTC
Vent 8 kt del Sud
Visibilitat: 10 km
Cel ennuvolat a una alçada de 5000 ft

TAF: KPBF 242320Z 2500/2524 VRB03KT P6SM FEW120 FM251500 19008KT P6SM BKN050

Observacions i pronòstics meteorològics de més de 4000 aeroports (METAR i TAF).

Les estacions disponibles són els punts grocs i vermells al mapa.

Posi el ratolí al punt desitjat per veure el nom de l'estació.

Feu clic per veure les observacions i els pronòstics meteorològics.

Per canviar el mapa: feu clic els botons verds amb una creu de color negre per apropar; al botó verd amb un guió per allunyar la imatge; o en les fletxes verdes per a mapes adjacents.


METAR-TAF: